createdAt,value
2023-05-21T00:00:30.626Z,17.48
2023-05-21T00:01:30.943Z,17.50
2023-05-21T00:02:29.768Z,17.37
2023-05-21T00:03:30.008Z,17.26
2023-05-21T00:04:29.851Z,17.09
2023-05-21T00:06:50.124Z,16.39
2023-05-21T00:07:49.850Z,16.05
2023-05-21T00:08:50.976Z,16.16
2023-05-21T00:11:08.781Z,16.64
2023-05-21T00:12:09.952Z,16.85
2023-05-21T00:13:08.878Z,16.93
2023-05-21T00:14:08.696Z,16.93
2023-05-21T00:15:08.600Z,17.03
2023-05-21T00:16:09.625Z,16.80
2023-05-21T00:17:08.707Z,16.47
2023-05-21T00:18:08.678Z,16.44
2023-05-21T00:19:08.654Z,16.52
2023-05-21T00:20:08.620Z,16.47
2023-05-21T00:21:08.573Z,16.47
2023-05-21T00:22:08.582Z,16.76
2023-05-21T00:23:09.543Z,16.93
2023-05-21T00:25:28.054Z,17.23
2023-05-21T00:26:29.323Z,17.23
2023-05-21T00:27:29.082Z,17.10
2023-05-21T00:28:29.048Z,16.90
2023-05-21T00:29:29.182Z,16.85
2023-05-21T00:30:29.042Z,16.52
2023-05-21T00:31:28.222Z,16.35
2023-05-21T00:32:29.009Z,16.37
2023-05-21T00:35:27.991Z,16.86
2023-05-21T00:36:27.959Z,16.99
2023-05-21T00:38:47.077Z,17.30
2023-05-21T00:39:47.364Z,17.35
2023-05-21T00:40:47.050Z,17.42
2023-05-21T00:41:48.075Z,17.30
2023-05-21T00:42:46.995Z,17.20
2023-05-21T00:45:07.599Z,16.97
2023-05-21T00:46:07.393Z,17.05
2023-05-21T00:48:26.633Z,17.12
2023-05-21T00:50:46.006Z,17.33
2023-05-21T00:51:46.717Z,17.42
2023-05-21T00:52:46.963Z,17.50
2023-05-21T00:53:46.732Z,17.40
2023-05-21T00:54:46.778Z,17.40
2023-05-21T00:55:46.651Z,17.50
2023-05-21T00:56:45.914Z,17.54
2023-05-21T00:57:45.602Z,17.47
2023-05-21T00:58:45.833Z,17.52
2023-05-21T00:59:46.623Z,17.60
2023-05-21T01:00:45.782Z,17.64
2023-05-21T01:01:45.990Z,17.68
2023-05-21T01:02:46.772Z,17.72
2023-05-21T01:03:45.761Z,17.68
2023-05-21T01:04:45.592Z,17.52
2023-05-21T01:07:04.988Z,16.92
2023-05-21T01:08:05.809Z,16.75
2023-05-21T01:11:24.425Z,16.16
2023-05-21T01:12:24.331Z,16.02
2023-05-21T01:13:25.493Z,15.80
2023-05-21T01:14:25.345Z,15.57
2023-05-21T01:15:25.268Z,15.66
2023-05-21T01:16:25.138Z,15.84
2023-05-21T01:17:25.143Z,15.91
2023-05-21T01:18:24.290Z,15.96
2023-05-21T01:19:24.209Z,16.16
2023-05-21T01:20:25.089Z,16.27
2023-05-21T01:21:25.293Z,16.27
2023-05-21T01:22:24.065Z,16.27
2023-05-21T01:23:24.288Z,16.37
2023-05-21T01:24:25.341Z,16.45
2023-05-21T01:25:24.032Z,16.51
2023-05-21T01:26:25.241Z,16.55
2023-05-21T01:27:25.189Z,16.60
2023-05-21T01:28:25.074Z,16.72
2023-05-21T01:30:43.586Z,16.95
2023-05-21T01:31:43.775Z,17.05
2023-05-21T01:32:43.748Z,17.12
2023-05-21T01:33:43.494Z,17.16
2023-05-21T01:34:43.503Z,17.23
2023-05-21T01:37:03.107Z,17.29
2023-05-21T01:38:03.271Z,17.34
2023-05-21T01:39:03.151Z,17.35
2023-05-21T01:40:02.997Z,17.20
2023-05-21T01:41:04.044Z,17.10
2023-05-21T01:42:03.058Z,16.68
2023-05-21T01:43:03.972Z,16.27
2023-05-21T01:44:04.182Z,16.06
2023-05-21T01:45:04.074Z,15.99
2023-05-21T01:46:03.180Z,16.03
2023-05-21T01:48:23.532Z,16.03
2023-05-21T01:49:23.206Z,16.09
2023-05-21T01:50:23.353Z,15.88
2023-05-21T01:51:24.144Z,15.74
2023-05-21T01:52:24.155Z,15.82
2023-05-21T01:53:23.074Z,15.92
2023-05-21T01:54:24.125Z,15.92
2023-05-21T01:55:24.133Z,15.91
2023-05-21T01:56:23.137Z,15.75
2023-05-21T01:58:42.611Z,15.98
2023-05-21T01:59:43.489Z,16.13
2023-05-21T02:00:43.692Z,16.28
2023-05-21T02:01:42.476Z,16.39
2023-05-21T02:02:42.413Z,16.37
2023-05-21T02:03:42.402Z,16.30
2023-05-21T02:06:01.761Z,16.23
2023-05-21T02:08:21.270Z,16.28
2023-05-21T02:12:40.563Z,16.06
2023-05-21T02:13:41.336Z,15.81
2023-05-21T02:14:40.569Z,15.61
2023-05-21T02:15:41.368Z,15.82
2023-05-21T02:16:40.374Z,15.92
2023-05-21T02:17:41.298Z,16.00
2023-05-21T02:18:41.249Z,16.09
2023-05-21T02:19:41.223Z,16.20
2023-05-21T02:20:40.273Z,16.28
2023-05-21T02:21:41.209Z,16.39
2023-05-21T02:22:41.226Z,16.47
2023-05-21T02:23:41.278Z,16.54
2023-05-21T02:25:59.400Z,16.54
2023-05-21T02:26:59.466Z,16.57
2023-05-21T02:27:59.339Z,16.65
2023-05-21T02:30:18.497Z,16.67
2023-05-21T02:31:18.432Z,16.65
2023-05-21T02:32:18.171Z,16.68
2023-05-21T02:34:37.775Z,16.31
2023-05-21T02:35:37.917Z,15.98
2023-05-21T02:36:37.710Z,15.84
2023-05-21T02:37:37.473Z,15.57
2023-05-21T02:41:16.637Z,15.55
2023-05-21T02:43:36.241Z,15.46
2023-05-21T02:47:14.217Z,14.71
2023-05-21T02:48:15.231Z,14.76
2023-05-21T02:49:15.061Z,14.95
2023-05-21T02:50:15.041Z,15.18
2023-05-21T02:51:14.255Z,15.34
2023-05-21T02:52:14.206Z,15.50
2023-05-21T02:53:15.168Z,15.48
2023-05-21T02:54:14.018Z,15.58
2023-05-21T02:55:14.168Z,15.69
2023-05-21T02:56:14.038Z,15.78
2023-05-21T02:58:40.481Z,15.50
2023-05-21T02:59:41.236Z,15.66
2023-05-21T03:00:40.420Z,15.80
2023-05-21T03:01:40.153Z,15.84
2023-05-21T03:02:40.229Z,15.89
2023-05-21T03:05:36.417Z,16.08
2023-05-21T03:06:37.146Z,16.10
2023-05-21T03:20:43.270Z,15.55
2023-05-21T03:21:43.017Z,15.44
2023-05-21T03:22:43.157Z,15.33
2023-05-21T03:25:02.510Z,15.02
2023-05-21T03:26:03.650Z,15.09
2023-05-21T03:27:02.434Z,15.05
2023-05-21T03:29:21.944Z,14.91
2023-05-21T03:30:23.157Z,14.75
2023-05-21T03:32:41.804Z,14.78
2023-05-21T03:35:19.709Z,15.06
2023-05-21T03:36:19.504Z,14.93
2023-05-21T03:37:20.717Z,14.76
2023-05-21T03:38:19.603Z,14.65
2023-05-21T03:39:19.408Z,14.61
2023-05-21T03:41:39.479Z,14.57
2023-05-21T03:42:40.524Z,14.56
2023-05-21T03:46:18.777Z,14.50
2023-05-21T03:47:19.389Z,14.36
2023-05-21T03:48:18.586Z,14.31
2023-05-21T03:49:19.348Z,14.43
2023-05-21T03:50:19.235Z,14.57
2023-05-21T03:51:18.264Z,14.78
2023-05-21T03:56:16.749Z,15.29
2023-05-21T03:57:17.961Z,14.99
2023-05-21T03:58:17.671Z,14.91
2023-05-21T03:59:16.702Z,14.95
2023-05-21T04:00:16.672Z,15.03
2023-05-21T04:01:16.616Z,15.09
2023-05-21T04:02:16.732Z,15.18
2023-05-21T04:03:16.836Z,15.29
2023-05-21T04:04:16.750Z,15.38
2023-05-21T04:05:16.615Z,15.47
2023-05-21T04:06:16.604Z,15.53
2023-05-21T04:09:36.834Z,15.12
2023-05-21T04:10:37.521Z,15.05
2023-05-21T04:12:55.579Z,15.09
2023-05-21T04:13:55.752Z,15.19
2023-05-21T04:14:55.626Z,15.26
2023-05-21T04:15:55.613Z,15.36
2023-05-21T04:16:55.533Z,15.38
2023-05-21T04:17:56.524Z,15.29
2023-05-21T04:18:55.742Z,15.31
2023-05-21T04:19:55.435Z,15.41
2023-05-21T04:20:55.617Z,15.47
2023-05-21T04:21:56.434Z,15.57
2023-05-21T04:24:14.830Z,15.65
2023-05-21T04:26:33.818Z,15.72
2023-05-21T04:27:33.612Z,15.77
2023-05-21T04:28:33.861Z,15.74
2023-05-21T04:29:33.652Z,15.30
2023-05-21T04:31:53.672Z,15.02
2023-05-21T04:34:12.599Z,15.09
2023-05-21T04:35:13.714Z,15.09
2023-05-21T04:36:13.254Z,15.09
2023-05-21T04:37:13.301Z,15.12
2023-05-21T04:38:12.379Z,15.18
2023-05-21T04:39:13.254Z,15.29
2023-05-21T04:40:12.255Z,15.36
2023-05-21T04:41:12.258Z,15.48
2023-05-21T04:42:13.475Z,15.58
2023-05-21T04:43:12.416Z,15.68
2023-05-21T04:44:12.215Z,15.74
2023-05-21T04:46:32.191Z,15.68
2023-05-21T04:47:32.852Z,15.55
2023-05-21T04:48:32.066Z,15.50
2023-05-21T04:49:31.784Z,15.37
2023-05-21T04:50:32.726Z,15.16
2023-05-21T04:51:32.749Z,15.10
2023-05-21T04:53:51.488Z,15.30
2023-05-21T04:54:52.348Z,15.40
2023-05-21T04:55:52.450Z,15.43
2023-05-21T04:56:51.238Z,15.51
2023-05-21T04:59:10.667Z,15.71
2023-05-21T05:00:10.505Z,15.75
2023-05-21T05:03:09.966Z,15.98
2023-05-21T05:04:10.058Z,15.84
2023-05-21T05:05:11.022Z,15.80
2023-05-21T05:06:10.736Z,15.84
2023-05-21T05:07:10.924Z,15.95
2023-05-21T05:08:11.430Z,15.98
2023-05-21T05:09:10.935Z,16.03
2023-05-21T05:10:09.987Z,15.95
2023-05-21T05:11:09.860Z,15.92
2023-05-21T05:12:09.958Z,15.82
2023-05-21T05:13:11.148Z,15.78
2023-05-21T05:14:09.976Z,15.72
2023-05-21T05:15:10.921Z,15.66
2023-05-21T05:16:11.024Z,15.60
2023-05-21T05:17:11.106Z,15.66
2023-05-21T05:18:10.097Z,15.62
2023-05-21T05:19:10.222Z,15.62
2023-05-21T05:20:10.076Z,15.69
2023-05-21T05:21:09.957Z,15.65
2023-05-21T05:22:13.341Z,15.66
2023-05-21T05:23:11.008Z,15.60
2023-05-21T05:25:29.590Z,15.18
2023-05-21T05:26:30.690Z,15.26
2023-05-21T05:27:29.584Z,15.20
2023-05-21T05:28:29.675Z,15.19
2023-05-21T05:32:08.457Z,15.14
2023-05-21T05:33:09.479Z,15.33
2023-05-21T05:34:09.364Z,15.31
2023-05-21T05:35:08.351Z,15.18
2023-05-21T05:37:28.099Z,14.54
2023-05-21T05:38:28.834Z,14.64
2023-05-21T05:39:28.860Z,14.71
2023-05-21T05:40:28.652Z,14.86
2023-05-21T05:41:27.576Z,15.12
2023-05-21T05:42:28.710Z,15.06
2023-05-21T05:44:46.726Z,15.25
2023-05-21T05:45:46.875Z,15.38
2023-05-21T05:46:47.664Z,15.54
2023-05-21T05:47:46.809Z,15.68
2023-05-21T05:48:47.611Z,15.72
2023-05-21T05:49:46.544Z,15.60
2023-05-21T05:50:46.626Z,15.46
2023-05-21T05:51:46.558Z,15.61
2023-05-21T05:52:46.746Z,15.62
2023-05-21T05:53:46.551Z,15.53
2023-05-21T05:54:46.549Z,15.71
2023-05-21T05:55:46.563Z,15.85
2023-05-21T05:56:46.710Z,15.92
2023-05-21T05:57:46.502Z,15.88
2023-05-21T05:58:46.783Z,16.08
2023-05-21T05:59:46.516Z,15.96
2023-05-21T06:00:46.801Z,16.12
2023-05-21T06:01:46.637Z,16.05
2023-05-21T06:02:47.762Z,16.06
2023-05-21T06:03:46.797Z,16.02
2023-05-21T06:04:46.664Z,15.99
2023-05-21T06:05:46.776Z,16.09
2023-05-21T06:06:46.659Z,16.00
2023-05-21T06:10:25.325Z,15.86
2023-05-21T06:11:26.032Z,15.99
2023-05-21T06:14:59.058Z,16.23
2023-05-21T06:15:59.111Z,16.33
2023-05-21T06:17:00.142Z,16.45
2023-05-21T06:17:58.836Z,16.45
2023-05-21T06:20:18.530Z,16.26
2023-05-21T06:21:19.223Z,16.34
2023-05-21T06:22:19.368Z,16.12
2023-05-21T06:23:19.137Z,16.26
2023-05-21T06:24:19.128Z,16.19
2023-05-21T06:26:37.637Z,16.08
2023-05-21T06:27:38.420Z,16.03
2023-05-21T06:28:38.598Z,16.13
2023-05-21T06:29:38.362Z,16.24
2023-05-21T06:30:37.453Z,16.34
2023-05-21T06:32:57.073Z,16.33
2023-05-21T06:33:57.878Z,16.45
2023-05-21T06:34:57.996Z,16.44
2023-05-21T06:35:56.725Z,16.44
2023-05-21T06:36:57.653Z,16.60
2023-05-21T06:37:56.716Z,16.72
2023-05-21T06:38:56.659Z,16.78
2023-05-21T06:39:57.654Z,16.76
2023-05-21T06:40:57.763Z,16.75
2023-05-21T06:41:56.689Z,16.64
2023-05-21T06:42:56.656Z,16.71
2023-05-21T06:43:56.624Z,16.78
2023-05-21T06:44:56.802Z,16.79
2023-05-21T06:45:57.741Z,16.58
2023-05-21T06:46:56.628Z,16.99
2023-05-21T06:47:57.814Z,17.16
2023-05-21T06:48:57.660Z,17.27
2023-05-21T06:49:56.601Z,17.37
2023-05-21T06:50:56.559Z,17.27
2023-05-21T06:53:16.141Z,16.92
2023-05-21T06:54:17.192Z,16.95
2023-05-21T06:55:16.910Z,17.07
2023-05-21T06:56:16.907Z,17.12
2023-05-21T06:57:16.948Z,17.16
2023-05-21T06:58:16.903Z,17.26
2023-05-21T07:00:35.695Z,17.26
2023-05-21T07:05:34.121Z,17.24
2023-05-21T07:06:34.161Z,17.31
2023-05-21T07:07:49.688Z,17.41
2023-05-21T07:11:23.271Z,17.76
2023-05-21T07:12:24.117Z,17.96
2023-05-21T07:13:23.228Z,18.09
2023-05-21T07:14:22.980Z,18.03
2023-05-21T07:15:23.923Z,17.96
2023-05-21T07:16:23.010Z,18.10
2023-05-21T07:17:22.928Z,18.16
2023-05-21T07:18:23.001Z,18.29
2023-05-21T07:19:23.984Z,18.31
2023-05-21T07:20:23.973Z,18.12
2023-05-21T07:21:22.905Z,18.30
2023-05-21T07:23:42.548Z,18.03
2023-05-21T07:24:42.304Z,18.19
2023-05-21T07:25:42.454Z,18.07
2023-05-21T07:26:43.256Z,17.89
2023-05-21T07:27:43.247Z,17.92
2023-05-21T07:28:42.294Z,18.12
2023-05-21T07:29:43.196Z,18.16
2023-05-21T07:30:42.249Z,18.12
2023-05-21T07:31:42.278Z,18.19
2023-05-21T07:32:43.348Z,18.38
2023-05-21T07:33:43.222Z,18.47
2023-05-21T07:34:42.155Z,18.59
2023-05-21T07:37:26.315Z,18.98
2023-05-21T07:38:27.067Z,19.02
2023-05-21T07:39:27.309Z,18.93
2023-05-21T07:40:27.014Z,18.93
2023-05-21T07:42:45.177Z,19.35
2023-05-21T07:43:46.224Z,19.31
2023-05-21T07:44:44.898Z,19.24
2023-05-21T07:45:45.951Z,19.37
2023-05-21T07:46:46.036Z,19.31
2023-05-21T07:47:46.026Z,19.34
2023-05-21T07:48:44.855Z,19.48
2023-05-21T07:51:23.161Z,19.62
2023-05-21T07:52:22.939Z,19.64
2023-05-21T07:53:23.956Z,19.60
2023-05-21T07:54:22.738Z,19.79
2023-05-21T07:55:23.819Z,19.78
2023-05-21T07:56:23.768Z,19.80
2023-05-21T07:57:22.923Z,19.97
2023-05-21T07:58:23.903Z,20.01
2023-05-21T07:59:22.783Z,19.76
2023-05-21T08:00:22.713Z,19.85
2023-05-21T08:01:22.677Z,20.00
2023-05-21T08:03:42.415Z,19.71
2023-05-21T08:04:42.195Z,19.79
2023-05-21T08:05:42.332Z,20.01
2023-05-21T08:06:43.087Z,20.06
2023-05-21T08:07:43.060Z,20.07
2023-05-21T08:08:41.989Z,20.14
2023-05-21T08:09:42.188Z,20.19
2023-05-21T08:10:43.102Z,20.16
2023-05-21T08:13:00.875Z,20.27
2023-05-21T08:15:20.248Z,20.30
2023-05-21T08:16:20.448Z,20.35
2023-05-21T08:17:21.225Z,20.31
2023-05-21T08:18:21.183Z,20.35
2023-05-21T08:19:20.202Z,20.24
2023-05-21T08:20:20.128Z,20.34
2023-05-21T08:21:21.231Z,20.44
2023-05-21T08:22:21.121Z,20.67
2023-05-21T08:23:21.364Z,20.62
2023-05-21T08:24:21.321Z,20.68
2023-05-21T08:25:21.317Z,20.67
2023-05-21T08:26:20.116Z,20.86
2023-05-21T08:27:20.087Z,20.99
2023-05-21T08:30:58.242Z,20.85
2023-05-21T08:31:58.446Z,21.00
2023-05-21T08:32:59.232Z,21.15
2023-05-21T08:33:58.213Z,21.10
2023-05-21T08:34:58.364Z,21.13
2023-05-21T08:35:59.348Z,21.33
2023-05-21T08:36:58.258Z,21.36
2023-05-21T08:37:58.345Z,21.36
2023-05-21T08:38:59.109Z,21.37
2023-05-21T08:39:58.192Z,21.42
2023-05-21T08:40:58.115Z,21.51
2023-05-21T08:41:59.128Z,21.64
2023-05-21T08:42:58.215Z,21.66
2023-05-21T08:43:58.212Z,21.55
2023-05-21T08:44:58.216Z,21.56
2023-05-21T08:47:24.296Z,21.68
2023-05-21T08:48:25.092Z,21.66
2023-05-21T08:49:25.726Z,21.72
2023-05-21T08:50:25.051Z,21.82
2023-05-21T08:51:23.939Z,21.90
2023-05-21T08:52:23.975Z,21.86
2023-05-21T08:53:28.635Z,21.86
2023-05-21T08:54:24.916Z,21.88
2023-05-21T08:55:25.885Z,21.82
2023-05-21T08:56:24.995Z,22.03
2023-05-21T08:57:25.003Z,22.09
2023-05-21T08:58:23.884Z,22.07
2023-05-21T08:59:24.885Z,22.16
2023-05-21T09:00:24.968Z,22.04
2023-05-21T09:01:26.438Z,22.04
2023-05-21T09:04:01.712Z,22.04
2023-05-21T09:04:56.595Z,21.86
2023-05-21T09:05:55.242Z,22.04
2023-05-21T09:06:55.212Z,21.99
2023-05-21T09:16:30.681Z,22.63
2023-05-21T09:17:30.496Z,22.63
2023-05-21T09:18:30.604Z,22.65
2023-05-21T09:20:49.755Z,22.65
2023-05-21T09:21:50.647Z,22.59
2023-05-21T09:22:50.761Z,22.71
2023-05-21T09:29:31.998Z,22.93
2023-05-21T09:32:25.239Z,22.89
2023-05-21T09:33:25.173Z,22.96
2023-05-21T09:34:26.127Z,22.86
2023-05-21T09:35:24.938Z,23.11
2023-05-21T09:36:25.941Z,23.23
2023-05-21T09:37:27.469Z,23.31
2023-05-21T09:43:14.758Z,23.32
2023-05-21T09:46:53.183Z,23.42
2023-05-21T09:47:52.913Z,23.44
2023-05-21T09:48:53.069Z,23.55
2023-05-21T09:49:53.884Z,23.47
2023-05-21T09:50:52.900Z,23.57
2023-05-21T09:51:53.851Z,23.69
2023-05-21T09:52:54.032Z,23.68
2023-05-21T09:53:52.804Z,23.66
2023-05-21T09:54:54.079Z,23.65
2023-05-21T09:55:52.772Z,23.52
2023-05-21T09:56:53.789Z,23.47
2023-05-21T09:57:52.772Z,23.62
2023-05-21T09:58:52.780Z,23.77
2023-05-21T09:59:53.954Z,23.79
2023-05-21T10:00:53.737Z,23.79
2023-05-21T10:01:52.894Z,23.76
2023-05-21T10:02:53.995Z,23.82
2023-05-21T10:03:52.738Z,23.85
2023-05-21T10:04:54.132Z,23.69
2023-05-21T10:05:52.722Z,23.72
2023-05-21T10:06:53.796Z,23.73
2023-05-21T10:07:52.806Z,24.02
2023-05-21T10:08:52.994Z,24.11
2023-05-21T10:09:53.674Z,24.25
2023-05-21T10:10:53.752Z,24.27
2023-05-21T10:11:53.757Z,24.30
2023-05-21T10:12:53.817Z,24.25
2023-05-21T10:13:52.652Z,24.38
2023-05-21T10:14:52.697Z,24.45
2023-05-21T10:15:53.680Z,24.52
2023-05-21T10:16:53.639Z,24.54
2023-05-21T10:17:53.922Z,24.45
2023-05-21T10:18:53.652Z,24.65
2023-05-21T10:19:52.624Z,24.73
2023-05-21T10:22:11.688Z,24.96
2023-05-21T10:24:31.259Z,24.68
2023-05-21T10:25:31.378Z,24.56
2023-05-21T10:26:31.198Z,24.50
2023-05-21T10:27:32.445Z,24.54
2023-05-21T10:28:31.264Z,24.50
2023-05-21T10:29:32.257Z,24.42
2023-05-21T10:30:31.166Z,24.56
2023-05-21T10:31:32.300Z,24.69
2023-05-21T10:32:31.182Z,24.86
2023-05-21T10:33:32.288Z,24.87
2023-05-21T10:34:31.165Z,24.92
2023-05-21T10:37:22.398Z,24.72
2023-05-21T10:38:22.339Z,24.86
2023-05-21T10:39:22.252Z,24.94
2023-05-21T10:40:22.259Z,25.13
2023-05-21T10:41:22.043Z,25.10
2023-05-21T10:42:22.049Z,25.10
2023-05-21T10:44:41.296Z,24.99
2023-05-21T10:45:42.218Z,25.13
2023-05-21T10:46:42.277Z,25.28
2023-05-21T10:47:41.022Z,25.33
2023-05-21T10:48:41.045Z,25.42
2023-05-21T10:51:00.345Z,25.42
2023-05-21T10:52:01.204Z,25.55
2023-05-21T10:53:00.346Z,25.52
2023-05-21T10:55:19.550Z,25.61
2023-05-21T10:56:19.634Z,25.64
2023-05-21T10:57:19.385Z,25.69
2023-05-21T10:58:20.339Z,25.75
2023-05-21T10:59:20.370Z,25.86
2023-05-21T11:00:19.311Z,26.00
2023-05-21T11:01:19.474Z,26.00
2023-05-21T11:02:20.460Z,25.76
2023-05-21T11:03:20.468Z,25.61
2023-05-21T11:04:20.343Z,25.57
2023-05-21T11:05:20.311Z,25.79
2023-05-21T11:06:19.266Z,25.70
2023-05-21T11:07:20.354Z,25.72
2023-05-21T11:08:19.352Z,25.79
2023-05-21T11:09:19.397Z,25.82
2023-05-21T11:10:19.329Z,25.66
2023-05-21T11:11:19.453Z,25.66
2023-05-21T11:12:19.261Z,25.72
2023-05-21T11:13:20.256Z,25.90
2023-05-21T11:14:20.873Z,26.03
2023-05-21T11:15:19.202Z,26.16
2023-05-21T11:16:20.260Z,26.28
2023-05-21T11:17:19.234Z,26.26
2023-05-21T11:18:20.188Z,26.27
2023-05-21T11:19:20.250Z,26.08
2023-05-21T11:20:20.208Z,26.12
2023-05-21T11:21:19.172Z,26.21
2023-05-21T11:22:20.193Z,26.16
2023-05-21T11:23:19.165Z,26.13
2023-05-21T11:24:20.159Z,26.14
2023-05-21T11:25:19.215Z,26.13
2023-05-21T11:26:20.253Z,26.30
2023-05-21T11:27:19.152Z,26.19
2023-05-21T11:28:20.147Z,26.28
2023-05-21T11:29:20.160Z,26.48
2023-05-21T11:30:19.139Z,26.62
2023-05-21T11:31:19.254Z,26.69
2023-05-21T11:35:07.688Z,26.90
2023-05-21T11:36:07.729Z,26.79
2023-05-21T11:37:08.499Z,26.90
2023-05-21T11:39:26.546Z,26.99
2023-05-21T11:40:26.593Z,27.11
2023-05-21T11:41:26.416Z,27.18
2023-05-21T11:42:26.243Z,27.11
2023-05-21T11:43:26.277Z,27.15
2023-05-21T11:44:26.321Z,27.23
2023-05-21T11:45:26.478Z,27.42
2023-05-21T11:46:27.270Z,27.47
2023-05-21T11:47:26.370Z,27.59
2023-05-21T11:48:27.373Z,27.58
2023-05-21T11:49:27.144Z,27.71
2023-05-21T11:50:27.224Z,27.68
2023-05-21T11:51:27.180Z,27.88
2023-05-21T11:52:27.129Z,27.83
2023-05-21T11:53:26.134Z,27.79
2023-05-21T11:54:27.138Z,27.62
2023-05-21T12:01:19.632Z,27.72
2023-05-21T12:02:20.554Z,27.68
2023-05-21T12:03:20.812Z,27.69
2023-05-21T12:04:20.467Z,27.59
2023-05-21T12:05:19.563Z,27.72
2023-05-21T12:06:19.422Z,27.89
2023-05-21T12:07:19.390Z,27.79
2023-05-21T12:08:19.427Z,27.72
2023-05-21T12:09:20.392Z,27.71
2023-05-21T12:10:20.439Z,27.83
2023-05-21T12:11:20.366Z,27.85
2023-05-21T12:12:19.444Z,27.72
2023-05-21T12:13:20.291Z,27.88
2023-05-21T12:14:19.387Z,27.93
2023-05-21T12:15:19.281Z,28.04
2023-05-21T12:16:19.370Z,28.06
2023-05-21T12:17:19.447Z,27.95
2023-05-21T12:18:19.238Z,27.76
2023-05-21T12:19:20.340Z,27.83
2023-05-21T12:20:20.539Z,27.83
2023-05-21T12:21:19.709Z,27.83
2023-05-21T12:22:19.499Z,27.90
2023-05-21T12:23:19.433Z,27.86
2023-05-21T12:24:20.541Z,28.03
2023-05-21T12:25:20.946Z,28.10
2023-05-21T12:26:19.609Z,28.10
2023-05-21T12:27:19.619Z,28.25
2023-05-21T12:28:19.653Z,28.28
2023-05-21T12:29:19.802Z,28.28
2023-05-21T12:30:19.723Z,28.25
2023-05-21T12:31:20.626Z,28.21
2023-05-21T12:32:20.746Z,28.27
2023-05-21T12:33:19.712Z,28.08
2023-05-21T12:34:19.822Z,28.23
2023-05-21T12:35:19.977Z,28.17
2023-05-21T12:36:19.805Z,28.21
2023-05-21T12:37:20.751Z,28.28
2023-05-21T12:38:19.985Z,28.20
2023-05-21T12:43:48.088Z,28.76
2023-05-21T12:46:06.639Z,28.54
2023-05-21T12:47:07.722Z,28.75
2023-05-21T12:48:06.546Z,28.83
2023-05-21T12:49:06.492Z,28.95
2023-05-21T12:50:06.451Z,29.07
2023-05-21T12:52:25.695Z,28.92
2023-05-21T12:53:26.408Z,29.00
2023-05-21T12:54:25.606Z,28.89
2023-05-21T12:55:25.533Z,28.95
2023-05-21T12:56:25.365Z,28.92
2023-05-21T13:05:40.998Z,29.03
2023-05-21T13:06:40.766Z,28.99
2023-05-21T13:07:40.971Z,28.85
2023-05-21T13:08:41.753Z,28.70
2023-05-21T13:09:40.768Z,28.82
2023-05-21T13:10:40.759Z,28.85
2023-05-21T13:11:41.742Z,28.79
2023-05-21T13:12:42.201Z,28.82
2023-05-21T13:13:40.620Z,28.89
2023-05-21T13:14:40.843Z,28.87
2023-05-21T13:15:41.869Z,28.97
2023-05-21T13:16:41.569Z,29.13
2023-05-21T13:17:40.700Z,29.16
2023-05-21T13:18:40.662Z,28.95
2023-05-21T13:19:41.568Z,28.92
2023-05-21T13:20:40.585Z,28.78
2023-05-21T13:21:41.005Z,28.82
2023-05-21T13:23:59.588Z,28.66
2023-05-21T13:24:59.553Z,28.80
2023-05-21T13:25:59.286Z,28.76
2023-05-21T13:27:00.371Z,28.83
2023-05-21T13:27:59.259Z,28.86
2023-05-21T13:28:59.271Z,28.70
2023-05-21T13:31:18.616Z,28.73
2023-05-21T13:33:40.101Z,28.65
2023-05-21T13:34:39.867Z,28.51
2023-05-21T13:35:39.732Z,28.58
2023-05-21T13:36:40.698Z,28.68
2023-05-21T13:37:40.952Z,28.59
2023-05-21T13:38:39.773Z,28.61
2023-05-21T13:39:39.673Z,28.75
2023-05-21T13:40:40.989Z,28.76
2023-05-21T13:41:39.680Z,28.83
2023-05-21T13:42:39.744Z,28.83
2023-05-21T13:43:40.704Z,28.85
2023-05-21T13:44:40.639Z,29.02
2023-05-21T13:45:39.653Z,29.06
2023-05-21T13:46:39.744Z,29.20
2023-05-21T13:47:40.592Z,29.31
2023-05-21T13:48:39.699Z,29.44
2023-05-21T13:49:39.668Z,29.51
2023-05-21T13:50:39.645Z,29.52
2023-05-21T13:51:40.595Z,29.58
2023-05-21T13:52:40.573Z,29.61
2023-05-21T13:53:40.593Z,29.65
2023-05-21T13:54:39.608Z,29.84
2023-05-21T13:55:39.660Z,30.01
2023-05-21T13:58:05.956Z,30.01
2023-05-21T13:59:05.733Z,29.75
2023-05-21T14:00:06.868Z,29.89
2023-05-21T14:01:06.983Z,29.83
2023-05-21T14:02:06.659Z,29.82
2023-05-21T14:03:05.672Z,29.80
2023-05-21T14:04:05.728Z,29.83
2023-05-21T14:05:05.667Z,29.83
2023-05-21T14:07:25.143Z,29.76
2023-05-21T14:08:24.831Z,29.71
2023-05-21T14:09:25.061Z,29.72
2023-05-21T14:10:25.842Z,29.69
2023-05-21T14:11:24.844Z,29.83
2023-05-21T14:12:25.705Z,29.90
2023-05-21T14:13:24.732Z,29.77
2023-05-21T14:14:25.796Z,29.82
2023-05-21T14:15:24.781Z,29.76
2023-05-21T14:16:24.767Z,29.75
2023-05-21T14:17:24.717Z,29.64
2023-05-21T14:18:24.661Z,29.66
2023-05-21T14:19:24.755Z,29.76
2023-05-21T14:20:25.733Z,29.80
2023-05-21T14:21:25.637Z,29.80
2023-05-21T14:22:24.761Z,29.72
2023-05-21T14:23:24.664Z,29.69
2023-05-21T14:24:24.616Z,29.69
2023-05-21T14:25:24.639Z,29.66
2023-05-21T14:26:25.645Z,29.69
2023-05-21T14:28:43.962Z,29.71
2023-05-21T14:29:44.076Z,29.65
2023-05-21T14:35:19.841Z,29.99
2023-05-21T14:36:19.995Z,30.18
2023-05-21T14:37:19.731Z,30.35
2023-05-21T14:38:19.732Z,30.35
2023-05-21T14:39:20.777Z,30.38
2023-05-21T14:40:20.868Z,30.37
2023-05-21T14:41:19.722Z,30.54
2023-05-21T14:42:19.738Z,30.49
2023-05-21T15:01:01.142Z,31.44
2023-05-21T15:02:00.965Z,31.40
2023-05-21T15:04:50.543Z,31.62
2023-05-21T15:05:50.388Z,31.64
2023-05-21T15:06:51.555Z,31.69
2023-05-21T15:07:50.334Z,31.65
2023-05-21T15:08:50.254Z,31.52
2023-05-21T15:09:50.301Z,31.65
2023-05-21T15:10:50.257Z,31.69
2023-05-21T15:11:51.280Z,31.65
2023-05-21T15:12:51.299Z,31.71
2023-05-21T15:13:51.459Z,31.78
2023-05-21T15:14:51.273Z,31.89
2023-05-21T15:15:50.386Z,31.93
2023-05-21T15:16:51.416Z,31.95
2023-05-21T15:17:50.319Z,32.03
2023-05-21T15:18:51.253Z,32.00
2023-05-21T15:19:50.170Z,32.09
2023-05-21T15:20:50.321Z,32.17
2023-05-21T15:21:51.187Z,32.21
2023-05-21T15:22:52.350Z,32.02
2023-05-21T15:25:09.513Z,32.02
2023-05-21T15:26:09.417Z,32.10
2023-05-21T15:27:10.467Z,32.16
2023-05-21T15:28:09.233Z,32.02
2023-05-21T15:29:09.180Z,31.73
2023-05-21T15:31:28.072Z,32.13
2023-05-21T15:32:28.975Z,31.99
2023-05-21T15:33:27.859Z,32.09
2023-05-21T15:34:29.093Z,32.09
2023-05-21T15:35:28.947Z,32.24
2023-05-21T15:36:27.789Z,32.44
2023-05-21T15:37:28.812Z,32.39
2023-05-21T15:38:27.801Z,32.51
2023-05-21T15:41:17.772Z,32.82
2023-05-21T15:42:17.604Z,32.62
2023-05-21T15:43:18.689Z,32.45
2023-05-21T15:44:18.564Z,32.37
2023-05-21T15:45:17.474Z,32.31
2023-05-21T15:46:18.544Z,32.52
2023-05-21T15:47:17.440Z,32.42
2023-05-21T15:49:36.734Z,32.32
2023-05-21T15:50:37.853Z,32.39
2023-05-21T15:51:37.637Z,32.51
2023-05-21T15:52:36.750Z,32.23
2023-05-21T15:53:36.695Z,32.38
2023-05-21T15:54:37.568Z,32.42
2023-05-21T15:55:38.074Z,32.47
2023-05-21T15:56:36.711Z,32.54
2023-05-21T15:57:37.721Z,32.58
2023-05-21T15:58:36.545Z,32.48
2023-05-21T15:59:37.723Z,32.45
2023-05-21T16:00:36.556Z,32.62
2023-05-21T16:01:36.625Z,32.79
2023-05-21T16:02:37.695Z,32.66
2023-05-21T16:03:37.787Z,32.82
2023-05-21T16:04:36.505Z,32.73
2023-05-21T16:05:36.759Z,32.78
2023-05-21T16:06:36.593Z,32.89
2023-05-21T16:07:38.326Z,32.96
2023-05-21T16:08:37.704Z,32.95
2023-05-21T16:09:37.715Z,32.81
2023-05-21T16:10:36.599Z,32.92
2023-05-21T16:11:36.594Z,33.05
2023-05-21T16:12:37.439Z,33.02
2023-05-21T16:13:36.505Z,33.21
2023-05-21T16:33:09.620Z,33.24
2023-05-21T16:34:10.481Z,32.96
2023-05-21T16:35:10.535Z,32.93
2023-05-21T16:36:09.366Z,33.12
2023-05-21T16:37:10.434Z,33.24
2023-05-21T16:38:09.371Z,33.17
2023-05-21T16:40:35.112Z,33.38
2023-05-21T16:41:35.026Z,33.57
2023-05-21T16:42:35.127Z,33.71
2023-05-21T16:43:35.107Z,33.47
2023-05-21T16:44:34.895Z,33.73
2023-05-21T16:45:35.139Z,33.83
2023-05-21T16:46:36.216Z,33.76
2023-05-21T16:47:35.064Z,33.57
2023-05-21T16:48:37.350Z,33.55
2023-05-21T16:49:34.857Z,33.52
2023-05-21T16:50:36.029Z,33.37
2023-05-21T16:51:34.848Z,33.10